sensor_id;sensor_type;location;lat;lon;timestamp;temperature;humidity
49148;DHT22;41980;45.550;12.070;2023-05-16T00:00:05;17.30;67.60
49148;DHT22;41980;45.550;12.070;2023-05-16T00:06:10;17.40;67.50
49148;DHT22;41980;45.550;12.070;2023-05-16T00:12:12;17.40;67.40
49148;DHT22;41980;45.550;12.070;2023-05-16T00:18:14;17.40;67.30
49148;DHT22;41980;45.550;12.070;2023-05-16T00:24:17;17.40;67.60
49148;DHT22;41980;45.550;12.070;2023-05-16T00:30:19;17.30;67.80
49148;DHT22;41980;45.550;12.070;2023-05-16T00:36:23;17.30;67.80
49148;DHT22;41980;45.550;12.070;2023-05-16T00:42:25;17.30;67.60
49148;DHT22;41980;45.550;12.070;2023-05-16T00:48:27;17.20;68.00
49148;DHT22;41980;45.550;12.070;2023-05-16T00:54:30;17.20;68.10
49148;DHT22;41980;45.550;12.070;2023-05-16T01:00:32;17.20;68.30
49148;DHT22;41980;45.550;12.070;2023-05-16T01:06:35;17.20;68.30
49148;DHT22;41980;45.550;12.070;2023-05-16T01:31:04;17.00;68.30
49148;DHT22;41980;45.550;12.070;2023-05-16T01:37:11;17.00;68.40
49148;DHT22;41980;45.550;12.070;2023-05-16T01:43:24;17.00;68.20
49148;DHT22;41980;45.550;12.070;2023-05-16T01:49:37;17.00;68.00
49148;DHT22;41980;45.550;12.070;2023-05-16T01:55:45;17.00;67.70
49148;DHT22;41980;45.550;12.070;2023-05-16T02:01:47;17.10;67.30
49148;DHT22;41980;45.550;12.070;2023-05-16T02:07:49;17.10;66.90
49148;DHT22;41980;45.550;12.070;2023-05-16T02:13:51;17.10;67.00
49148;DHT22;41980;45.550;12.070;2023-05-16T02:19:53;16.70;68.60
49148;DHT22;41980;45.550;12.070;2023-05-16T02:25:55;16.50;69.30
49148;DHT22;41980;45.550;12.070;2023-05-16T02:31:58;16.50;69.50
49148;DHT22;41980;45.550;12.070;2023-05-16T02:37:59;16.00;70.60
49148;DHT22;41980;45.550;12.070;2023-05-16T02:44:01;15.60;72.00
49148;DHT22;41980;45.550;12.070;2023-05-16T02:50:04;15.40;72.80
49148;DHT22;41980;45.550;12.070;2023-05-16T02:56:09;15.20;73.70
49148;DHT22;41980;45.550;12.070;2023-05-16T03:02:11;15.20;73.40
49148;DHT22;41980;45.550;12.070;2023-05-16T03:08:14;15.20;75.10
49148;DHT22;41980;45.550;12.070;2023-05-16T03:14:16;15.30;73.10
49148;DHT22;41980;45.550;12.070;2023-05-16T03:20:21;15.10;73.20
49148;DHT22;41980;45.550;12.070;2023-05-16T03:26:24;15.00;73.80
49148;DHT22;41980;45.550;12.070;2023-05-16T03:32:26;15.00;73.70
49148;DHT22;41980;45.550;12.070;2023-05-16T03:38:28;15.00;73.80
49148;DHT22;41980;45.550;12.070;2023-05-16T03:44:30;15.00;73.50
49148;DHT22;41980;45.550;12.070;2023-05-16T03:50:32;15.10;74.00
49148;DHT22;41980;45.550;12.070;2023-05-16T03:56:34;15.10;73.40
49148;DHT22;41980;45.550;12.070;2023-05-16T04:02:36;15.10;73.60
49148;DHT22;41980;45.550;12.070;2023-05-16T04:08:38;15.10;73.50
49148;DHT22;41980;45.550;12.070;2023-05-16T04:14:41;15.10;74.20
49148;DHT22;41980;45.550;12.070;2023-05-16T04:20:43;15.00;73.30
49148;DHT22;41980;45.550;12.070;2023-05-16T04:26:48;15.10;73.30
49148;DHT22;41980;45.550;12.070;2023-05-16T04:32:52;15.00;73.70
49148;DHT22;41980;45.550;12.070;2023-05-16T04:38:53;15.10;74.00
49148;DHT22;41980;45.550;12.070;2023-05-16T04:44:56;15.10;74.00
49148;DHT22;41980;45.550;12.070;2023-05-16T04:50:58;15.10;74.70
49148;DHT22;41980;45.550;12.070;2023-05-16T04:57:00;15.20;74.50
49148;DHT22;41980;45.550;12.070;2023-05-16T05:09:57;15.30;74.00
49148;DHT22;41980;45.550;12.070;2023-05-16T05:15:59;15.40;74.20
49148;DHT22;41980;45.550;12.070;2023-05-16T05:22:03;15.40;73.50
49148;DHT22;41980;45.550;12.070;2023-05-16T05:28:04;15.40;73.10
49148;DHT22;41980;45.550;12.070;2023-05-16T05:34:07;15.50;73.00
49148;DHT22;41980;45.550;12.070;2023-05-16T05:40:09;15.60;73.80
49148;DHT22;41980;45.550;12.070;2023-05-16T05:46:12;15.70;73.40
49148;DHT22;41980;45.550;12.070;2023-05-16T05:52:14;15.80;73.70
49148;DHT22;41980;45.550;12.070;2023-05-16T05:58:16;15.80;73.40
49148;DHT22;41980;45.550;12.070;2023-05-16T06:04:19;15.80;72.90
49148;DHT22;41980;45.550;12.070;2023-05-16T06:10:22;15.80;72.70
49148;DHT22;41980;45.550;12.070;2023-05-16T06:16:25;15.40;73.90
49148;DHT22;41980;45.550;12.070;2023-05-16T06:22:27;15.00;75.50
49148;DHT22;41980;45.550;12.070;2023-05-16T06:28:29;14.70;77.70
49148;DHT22;41980;45.550;12.070;2023-05-16T06:34:32;14.40;78.90
49148;DHT22;41980;45.550;12.070;2023-05-16T06:40:34;14.20;79.60
49148;DHT22;41980;45.550;12.070;2023-05-16T06:46:36;14.10;80.20
49148;DHT22;41980;45.550;12.070;2023-05-16T06:52:40;14.10;80.90
49148;DHT22;41980;45.550;12.070;2023-05-16T06:58:42;14.20;81.00
49148;DHT22;41980;45.550;12.070;2023-05-16T07:04:45;14.20;80.40
49148;DHT22;41980;45.550;12.070;2023-05-16T07:10:47;14.30;80.10
49148;DHT22;41980;45.550;12.070;2023-05-16T07:16:49;14.50;80.20
49148;DHT22;41980;45.550;12.070;2023-05-16T07:22:51;14.70;79.70
49148;DHT22;41980;45.550;12.070;2023-05-16T07:28:53;14.80;78.90
49148;DHT22;41980;45.550;12.070;2023-05-16T07:34:55;14.90;80.00
49148;DHT22;41980;45.550;12.070;2023-05-16T07:40:57;15.00;81.10
49148;DHT22;41980;45.550;12.070;2023-05-16T07:46:59;15.00;80.20
49148;DHT22;41980;45.550;12.070;2023-05-16T07:53:02;14.80;80.60
49148;DHT22;41980;45.550;12.070;2023-05-16T07:59:04;14.60;80.20
49148;DHT22;41980;45.550;12.070;2023-05-16T08:05:07;14.60;81.30
49148;DHT22;41980;45.550;12.070;2023-05-16T08:11:09;14.60;80.80
49148;DHT22;41980;45.550;12.070;2023-05-16T08:17:12;15.00;79.60
49148;DHT22;41980;45.550;12.070;2023-05-16T08:23:14;15.30;79.10
49148;DHT22;41980;45.550;12.070;2023-05-16T08:29:16;15.80;78.40
49148;DHT22;41980;45.550;12.070;2023-05-16T08:35:18;16.30;78.90
49148;DHT22;41980;45.550;12.070;2023-05-16T08:41:20;16.60;77.70
49148;DHT22;41980;45.550;12.070;2023-05-16T08:47:23;16.60;77.30
49148;DHT22;41980;45.550;12.070;2023-05-16T08:53:33;16.60;77.80
49148;DHT22;41980;45.550;12.070;2023-05-16T08:59:41;16.80;77.30
49148;DHT22;41980;45.550;12.070;2023-05-16T09:05:43;17.20;76.90
49148;DHT22;41980;45.550;12.070;2023-05-16T09:11:45;17.20;76.50
49148;DHT22;41980;45.550;12.070;2023-05-16T09:17:47;17.10;76.90
49148;DHT22;41980;45.550;12.070;2023-05-16T09:23:51;17.00;76.50
49148;DHT22;41980;45.550;12.070;2023-05-16T09:29:57;17.00;76.40
49148;DHT22;41980;45.550;12.070;2023-05-16T09:36:02;17.00;76.30
49148;DHT22;41980;45.550;12.070;2023-05-16T09:42:04;17.00;76.20
49148;DHT22;41980;45.550;12.070;2023-05-16T09:48:08;16.80;76.30
49148;DHT22;41980;45.550;12.070;2023-05-16T09:54:10;16.90;76.30
49148;DHT22;41980;45.550;12.070;2023-05-16T10:00:13;17.00;76.00
49148;DHT22;41980;45.550;12.070;2023-05-16T10:06:16;17.00;75.50
49148;DHT22;41980;45.550;12.070;2023-05-16T10:12:19;16.90;75.50
49148;DHT22;41980;45.550;12.070;2023-05-16T10:18:30;16.90;75.10
49148;DHT22;41980;45.550;12.070;2023-05-16T10:24:38;17.00;74.60
49148;DHT22;41980;45.550;12.070;2023-05-16T10:30:45;17.10;73.20
49148;DHT22;41980;45.550;12.070;2023-05-16T10:36:47;17.20;73.10
49148;DHT22;41980;45.550;12.070;2023-05-16T10:42:56;17.20;72.70
49148;DHT22;41980;45.550;12.070;2023-05-16T10:48:58;17.30;72.70
49148;DHT22;41980;45.550;12.070;2023-05-16T10:55:02;17.40;72.40
49148;DHT22;41980;45.550;12.070;2023-05-16T11:07:15;17.70;69.80
49148;DHT22;41980;45.550;12.070;2023-05-16T11:13:23;17.80;69.90
49148;DHT22;41980;45.550;12.070;2023-05-16T11:19:32;17.80;70.90
49148;DHT22;41980;45.550;12.070;2023-05-16T11:25:35;17.80;70.40
49148;DHT22;41980;45.550;12.070;2023-05-16T11:31:41;17.70;70.00
49148;DHT22;41980;45.550;12.070;2023-05-16T11:37:44;17.90;70.10
49148;DHT22;41980;45.550;12.070;2023-05-16T11:43:47;17.90;70.20
49148;DHT22;41980;45.550;12.070;2023-05-16T11:49:49;17.70;71.10
49148;DHT22;41980;45.550;12.070;2023-05-16T11:55:51;17.70;71.10
49148;DHT22;41980;45.550;12.070;2023-05-16T12:01:53;17.80;71.30
49148;DHT22;41980;45.550;12.070;2023-05-16T12:07:55;18.00;71.40
49148;DHT22;41980;45.550;12.070;2023-05-16T12:13:58;18.10;71.30
49148;DHT22;41980;45.550;12.070;2023-05-16T12:20:01;18.00;71.80
49148;DHT22;41980;45.550;12.070;2023-05-16T12:26:07;18.00;71.20
49148;DHT22;41980;45.550;12.070;2023-05-16T12:32:09;18.00;71.80
49148;DHT22;41980;45.550;12.070;2023-05-16T12:38:13;18.10;71.70
49148;DHT22;41980;45.550;12.070;2023-05-16T12:44:17;18.10;71.40
49148;DHT22;41980;45.550;12.070;2023-05-16T12:50:21;18.10;71.70
49148;DHT22;41980;45.550;12.070;2023-05-16T12:56:23;18.10;71.70
49148;DHT22;41980;45.550;12.070;2023-05-16T13:02:26;18.20;70.50
49148;DHT22;41980;45.550;12.070;2023-05-16T13:08:28;18.30;70.70
49148;DHT22;41980;45.550;12.070;2023-05-16T13:14:31;18.50;70.10
49148;DHT22;41980;45.550;12.070;2023-05-16T13:20:33;18.60;69.70
49148;DHT22;41980;45.550;12.070;2023-05-16T13:26:35;18.90;68.30
49148;DHT22;41980;45.550;12.070;2023-05-16T13:32:38;18.90;67.80
49148;DHT22;41980;45.550;12.070;2023-05-16T13:38:40;18.90;65.80
49148;DHT22;41980;45.550;12.070;2023-05-16T13:44:43;18.70;64.80
49148;DHT22;41980;45.550;12.070;2023-05-16T13:50:45;18.50;63.30
49148;DHT22;41980;45.550;12.070;2023-05-16T13:56:47;18.60;62.90
49148;DHT22;41980;45.550;12.070;2023-05-16T14:02:50;18.60;62.30
49148;DHT22;41980;45.550;12.070;2023-05-16T14:08:52;18.50;62.10
49148;DHT22;41980;45.550;12.070;2023-05-16T14:14:54;18.50;61.20
49148;DHT22;41980;45.550;12.070;2023-05-16T14:20:56;18.50;61.20
49148;DHT22;41980;45.550;12.070;2023-05-16T14:26:58;18.50;60.40
49148;DHT22;41980;45.550;12.070;2023-05-16T14:33:01;18.40;61.80
49148;DHT22;41980;45.550;12.070;2023-05-16T14:39:07;18.10;62.90
49148;DHT22;41980;45.550;12.070;2023-05-16T14:45:10;17.90;64.00
49148;DHT22;41980;45.550;12.070;2023-05-16T14:51:12;17.70;65.30
49148;DHT22;41980;45.550;12.070;2023-05-16T14:57:14;17.50;66.70
49148;DHT22;41980;45.550;12.070;2023-05-16T15:03:17;17.50;66.90
49148;DHT22;41980;45.550;12.070;2023-05-16T15:09:19;17.50;67.70
49148;DHT22;41980;45.550;12.070;2023-05-16T15:15:21;17.40;67.70
49148;DHT22;41980;45.550;12.070;2023-05-16T15:21:23;17.30;67.70
49148;DHT22;41980;45.550;12.070;2023-05-16T15:27:25;17.30;68.20
49148;DHT22;41980;45.550;12.070;2023-05-16T15:33:27;17.30;68.30
49148;DHT22;41980;45.550;12.070;2023-05-16T15:39:29;17.10;68.80
49148;DHT22;41980;45.550;12.070;2023-05-16T15:45:32;16.90;70.80
49148;DHT22;41980;45.550;12.070;2023-05-16T15:51:34;16.50;70.80
49148;DHT22;41980;45.550;12.070;2023-05-16T15:57:36;16.10;72.00
49148;DHT22;41980;45.550;12.070;2023-05-16T16:03:38;15.80;73.20
49148;DHT22;41980;45.550;12.070;2023-05-16T16:09:40;15.50;72.90
49148;DHT22;41980;45.550;12.070;2023-05-16T16:15:43;15.30;74.40
49148;DHT22;41980;45.550;12.070;2023-05-16T16:21:45;15.20;74.60
49148;DHT22;41980;45.550;12.070;2023-05-16T16:27:47;15.10;75.00
49148;DHT22;41980;45.550;12.070;2023-05-16T16:33:49;15.00;74.90
49148;DHT22;41980;45.550;12.070;2023-05-16T16:39:51;15.00;76.00
49148;DHT22;41980;45.550;12.070;2023-05-16T16:45:53;15.00;75.40
49148;DHT22;41980;45.550;12.070;2023-05-16T16:51:55;15.00;76.00
49148;DHT22;41980;45.550;12.070;2023-05-16T16:57:59;15.10;75.40
49148;DHT22;41980;45.550;12.070;2023-05-16T17:04:02;15.20;75.40
49148;DHT22;41980;45.550;12.070;2023-05-16T17:10:05;15.20;74.50
49148;DHT22;41980;45.550;12.070;2023-05-16T17:16:10;15.20;74.20
49148;DHT22;41980;45.550;12.070;2023-05-16T17:22:12;15.20;74.30
49148;DHT22;41980;45.550;12.070;2023-05-16T17:28:16;15.30;74.20
49148;DHT22;41980;45.550;12.070;2023-05-16T17:34:18;15.30;74.00
49148;DHT22;41980;45.550;12.070;2023-05-16T17:40:20;15.30;74.10
49148;DHT22;41980;45.550;12.070;2023-05-16T17:46:22;15.20;74.20
49148;DHT22;41980;45.550;12.070;2023-05-16T17:52:24;15.20;74.50
49148;DHT22;41980;45.550;12.070;2023-05-16T17:58:26;15.20;74.40
49148;DHT22;41980;45.550;12.070;2023-05-16T18:04:28;15.10;74.40
49148;DHT22;41980;45.550;12.070;2023-05-16T18:10:31;15.10;74.60
49148;DHT22;41980;45.550;12.070;2023-05-16T18:16:34;15.00;74.70
49148;DHT22;41980;45.550;12.070;2023-05-16T18:22:37;15.10;74.70
49148;DHT22;41980;45.550;12.070;2023-05-16T18:28:39;15.00;74.50
49148;DHT22;41980;45.550;12.070;2023-05-16T18:34:41;15.00;74.60
49148;DHT22;41980;45.550;12.070;2023-05-16T18:40:43;15.00;74.90
49148;DHT22;41980;45.550;12.070;2023-05-16T18:46:49;15.00;75.20
49148;DHT22;41980;45.550;12.070;2023-05-16T18:52:51;15.00;77.00
49148;DHT22;41980;45.550;12.070;2023-05-16T18:58:58;15.00;76.50
49148;DHT22;41980;45.550;12.070;2023-05-16T19:05:00;15.00;76.80
49148;DHT22;41980;45.550;12.070;2023-05-16T19:11:02;14.90;76.80
49148;DHT22;41980;45.550;12.070;2023-05-16T19:17:04;14.90;77.10
49148;DHT22;41980;45.550;12.070;2023-05-16T19:23:07;14.90;77.80
49148;DHT22;41980;45.550;12.070;2023-05-16T19:29:09;14.90;76.10
49148;DHT22;41980;45.550;12.070;2023-05-16T19:35:11;14.90;75.80
49148;DHT22;41980;45.550;12.070;2023-05-16T19:41:13;14.90;75.80
49148;DHT22;41980;45.550;12.070;2023-05-16T19:47:15;14.90;75.80
49148;DHT22;41980;45.550;12.070;2023-05-16T19:53:17;15.00;75.40
49148;DHT22;41980;45.550;12.070;2023-05-16T19:59:19;14.90;76.60
49148;DHT22;41980;45.550;12.070;2023-05-16T20:05:24;14.90;76.20
49148;DHT22;41980;45.550;12.070;2023-05-16T20:11:27;14.90;76.10
49148;DHT22;41980;45.550;12.070;2023-05-16T20:17:30;14.90;76.30
49148;DHT22;41980;45.550;12.070;2023-05-16T20:23:32;14.90;76.30
49148;DHT22;41980;45.550;12.070;2023-05-16T20:29:34;14.90;76.20
49148;DHT22;41980;45.550;12.070;2023-05-16T20:35:36;14.80;76.10
49148;DHT22;41980;45.550;12.070;2023-05-16T20:41:38;14.90;76.50
49148;DHT22;41980;45.550;12.070;2023-05-16T20:47:40;14.90;76.30
49148;DHT22;41980;45.550;12.070;2023-05-16T20:53:42;14.80;76.30
49148;DHT22;41980;45.550;12.070;2023-05-16T20:59:44;14.80;76.50
49148;DHT22;41980;45.550;12.070;2023-05-16T21:05:46;14.80;76.90
49148;DHT22;41980;45.550;12.070;2023-05-16T21:11:48;14.70;76.70
49148;DHT22;41980;45.550;12.070;2023-05-16T21:17:50;14.70;76.60
49148;DHT22;41980;45.550;12.070;2023-05-16T21:23:52;14.70;76.70
49148;DHT22;41980;45.550;12.070;2023-05-16T21:29:54;14.70;76.80
49148;DHT22;41980;45.550;12.070;2023-05-16T21:35:56;14.70;76.50
49148;DHT22;41980;45.550;12.070;2023-05-16T21:41:58;14.70;76.70
49148;DHT22;41980;45.550;12.070;2023-05-16T21:48:01;14.70;76.50
49148;DHT22;41980;45.550;12.070;2023-05-16T21:54:03;14.80;76.60
49148;DHT22;41980;45.550;12.070;2023-05-16T22:00:07;14.80;76.90
49148;DHT22;41980;45.550;12.070;2023-05-16T22:06:10;14.70;76.80
49148;DHT22;41980;45.550;12.070;2023-05-16T22:12:12;14.80;77.30
49148;DHT22;41980;45.550;12.070;2023-05-16T22:18:14;14.80;76.60
49148;DHT22;41980;45.550;12.070;2023-05-16T22:24:16;14.80;76.80
49148;DHT22;41980;45.550;12.070;2023-05-16T22:30:18;14.90;76.90
49148;DHT22;41980;45.550;12.070;2023-05-16T22:36:20;14.90;76.60
49148;DHT22;41980;45.550;12.070;2023-05-16T22:42:22;14.80;76.40
49148;DHT22;41980;45.550;12.070;2023-05-16T22:48:24;14.80;76.60
49148;DHT22;41980;45.550;12.070;2023-05-16T22:54:26;14.80;77.10
49148;DHT22;41980;45.550;12.070;2023-05-16T23:00:28;14.80;77.00
49148;DHT22;41980;45.550;12.070;2023-05-16T23:06:30;14.80;76.80
49148;DHT22;41980;45.550;12.070;2023-05-16T23:12:33;14.80;76.70
49148;DHT22;41980;45.550;12.070;2023-05-16T23:18:34;14.80;76.50
49148;DHT22;41980;45.550;12.070;2023-05-16T23:24:36;14.90;76.60
49148;DHT22;41980;45.550;12.070;2023-05-16T23:30:38;14.80;76.70
49148;DHT22;41980;45.550;12.070;2023-05-16T23:36:40;14.80;76.70
49148;DHT22;41980;45.550;12.070;2023-05-16T23:42:42;14.90;77.30
49148;DHT22;41980;45.550;12.070;2023-05-16T23:48:44;14.80;77.30
49148;DHT22;41980;45.550;12.070;2023-05-16T23:54:46;14.80;77.30
